Aviation Digital Data Service (ADDS)

Output produced by METARs form (0629 UTC 11 February 2016)
found at http://aviationweather.gov/adds/metars/
 
KORH 110539Z 1106/1206 28007KT P6SM BKN070 
     FM111000 28007KT P6SM VCSH BKN070 
     FM111400 28010KT P6SM VCSH BKN025 
     FM111800 28014G21KT P6SM VCSH BKN035 
     FM112300 29014G29KT P6SM SCT035 
     FM120500 29012G25KT P6SM FEW250